sensor_id;sensor_type;location;lat;lon;timestamp;P1;durP1;ratioP1;P2;durP2;ratioP2
54193;SDS011;40102;50.906;6.972;2023-12-20T00:02:05;10.07;;;4.38;;
54193;SDS011;40102;50.906;6.972;2023-12-20T00:04:30;6.47;;;4.10;;
54193;SDS011;40102;50.906;6.972;2023-12-20T00:06:56;6.82;;;4.50;;
54193;SDS011;40102;50.906;6.972;2023-12-20T00:09:21;7.32;;;4.68;;
54193;SDS011;40102;50.906;6.972;2023-12-20T00:11:46;6.57;;;4.32;;
54193;SDS011;40102;50.906;6.972;2023-12-20T00:14:11;7.25;;;4.30;;
54193;SDS011;40102;50.906;6.972;2023-12-20T00:16:37;8.40;;;4.22;;
54193;SDS011;40102;50.906;6.972;2023-12-20T00:19:02;5.63;;;4.05;;
54193;SDS011;40102;50.906;6.972;2023-12-20T00:21:28;7.28;;;4.18;;
54193;SDS011;40102;50.906;6.972;2023-12-20T00:23:53;7.30;;;4.50;;
54193;SDS011;40102;50.906;6.972;2023-12-20T00:26:18;7.43;;;4.40;;
54193;SDS011;40102;50.906;6.972;2023-12-20T00:28:44;8.88;;;5.13;;
54193;SDS011;40102;50.906;6.972;2023-12-20T00:31:09;7.70;;;4.75;;
54193;SDS011;40102;50.906;6.972;2023-12-20T00:33:35;7.28;;;4.63;;
54193;SDS011;40102;50.906;6.972;2023-12-20T00:36:00;7.35;;;4.53;;
54193;SDS011;40102;50.906;6.972;2023-12-20T00:38:26;8.05;;;4.57;;
54193;SDS011;40102;50.906;6.972;2023-12-20T00:40:51;6.68;;;4.07;;
54193;SDS011;40102;50.906;6.972;2023-12-20T00:43:17;5.43;;;3.90;;
54193;SDS011;40102;50.906;6.972;2023-12-20T00:45:42;6.55;;;3.88;;
54193;SDS011;40102;50.906;6.972;2023-12-20T00:48:07;5.82;;;3.75;;
54193;SDS011;40102;50.906;6.972;2023-12-20T00:50:33;4.70;;;3.20;;
54193;SDS011;40102;50.906;6.972;2023-12-20T00:52:58;5.43;;;3.45;;
54193;SDS011;40102;50.906;6.972;2023-12-20T00:55:23;4.97;;;3.13;;
54193;SDS011;40102;50.906;6.972;2023-12-20T00:57:49;4.78;;;3.33;;
54193;SDS011;40102;50.906;6.972;2023-12-20T01:00:14;5.43;;;3.40;;
54193;SDS011;40102;50.906;6.972;2023-12-20T01:02:40;6.53;;;3.58;;
54193;SDS011;40102;50.906;6.972;2023-12-20T01:05:06;6.00;;;3.22;;
54193;SDS011;40102;50.906;6.972;2023-12-20T01:07:32;5.75;;;3.58;;
54193;SDS011;40102;50.906;6.972;2023-12-20T01:09:58;5.38;;;3.05;;
54193;SDS011;40102;50.906;6.972;2023-12-20T01:12:23;5.95;;;3.22;;
54193;SDS011;40102;50.906;6.972;2023-12-20T01:14:48;5.47;;;2.97;;
54193;SDS011;40102;50.906;6.972;2023-12-20T01:17:13;5.05;;;2.55;;
54193;SDS011;40102;50.906;6.972;2023-12-20T01:19:39;5.47;;;3.10;;
54193;SDS011;40102;50.906;6.972;2023-12-20T01:22:04;7.05;;;3.38;;
54193;SDS011;40102;50.906;6.972;2023-12-20T01:24:30;6.32;;;3.28;;
54193;SDS011;40102;50.906;6.972;2023-12-20T01:26:55;4.85;;;3.03;;
54193;SDS011;40102;50.906;6.972;2023-12-20T01:29:21;5.18;;;3.10;;
54193;SDS011;40102;50.906;6.972;2023-12-20T01:31:46;7.10;;;3.53;;
54193;SDS011;40102;50.906;6.972;2023-12-20T01:34:11;5.13;;;2.80;;
54193;SDS011;40102;50.906;6.972;2023-12-20T01:36:37;6.85;;;3.10;;
54193;SDS011;40102;50.906;6.972;2023-12-20T01:39:02;6.47;;;3.08;;
54193;SDS011;40102;50.906;6.972;2023-12-20T01:41:28;7.95;;;3.88;;
54193;SDS011;40102;50.906;6.972;2023-12-20T01:43:53;7.60;;;3.95;;
54193;SDS011;40102;50.906;6.972;2023-12-20T01:46:19;10.30;;;4.22;;
54193;SDS011;40102;50.906;6.972;2023-12-20T01:48:45;9.60;;;4.45;;
54193;SDS011;40102;50.906;6.972;2023-12-20T01:51:10;11.07;;;4.40;;
54193;SDS011;40102;50.906;6.972;2023-12-20T01:53:36;12.55;;;4.70;;
54193;SDS011;40102;50.906;6.972;2023-12-20T01:56:02;9.35;;;5.18;;
54193;SDS011;40102;50.906;6.972;2023-12-20T01:58:27;8.93;;;5.10;;
54193;SDS011;40102;50.906;6.972;2023-12-20T02:00:53;11.95;;;5.15;;
54193;SDS011;40102;50.906;6.972;2023-12-20T02:03:19;8.75;;;4.90;;
54193;SDS011;40102;50.906;6.972;2023-12-20T02:05:46;10.05;;;4.80;;
54193;SDS011;40102;50.906;6.972;2023-12-20T02:08:12;9.35;;;4.70;;
54193;SDS011;40102;50.906;6.972;2023-12-20T02:10:38;10.75;;;4.13;;
54193;SDS011;40102;50.906;6.972;2023-12-20T02:13:05;9.80;;;4.30;;
54193;SDS011;40102;50.906;6.972;2023-12-20T02:15:30;6.85;;;3.70;;
54193;SDS011;40102;50.906;6.972;2023-12-20T02:17:56;9.18;;;4.00;;
54193;SDS011;40102;50.906;6.972;2023-12-20T02:20:21;6.53;;;3.55;;
54193;SDS011;40102;50.906;6.972;2023-12-20T02:22:47;8.10;;;3.63;;
54193;SDS011;40102;50.906;6.972;2023-12-20T02:25:12;7.65;;;3.42;;
54193;SDS011;40102;50.906;6.972;2023-12-20T02:27:37;7.53;;;3.42;;
54193;SDS011;40102;50.906;6.972;2023-12-20T02:30:04;6.47;;;3.33;;
54193;SDS011;40102;50.906;6.972;2023-12-20T02:32:30;8.23;;;3.20;;
54193;SDS011;40102;50.906;6.972;2023-12-20T02:34:56;5.53;;;2.72;;
54193;SDS011;40102;50.906;6.972;2023-12-20T02:37:21;8.85;;;2.72;;
54193;SDS011;40102;50.906;6.972;2023-12-20T02:39:47;8.18;;;2.42;;
54193;SDS011;40102;50.906;6.972;2023-12-20T02:42:12;7.65;;;2.35;;
54193;SDS011;40102;50.906;6.972;2023-12-20T02:44:38;12.38;;;2.35;;
54193;SDS011;40102;50.906;6.972;2023-12-20T02:47:03;9.25;;;1.92;;
54193;SDS011;40102;50.906;6.972;2023-12-20T02:49:29;6.55;;;1.98;;
54193;SDS011;40102;50.906;6.972;2023-12-20T02:51:54;5.18;;;1.70;;
54193;SDS011;40102;50.906;6.972;2023-12-20T02:54:19;11.10;;;2.58;;
54193;SDS011;40102;50.906;6.972;2023-12-20T02:56:45;9.52;;;2.20;;
54193;SDS011;40102;50.906;6.972;2023-12-20T02:59:10;9.73;;;2.33;;
54193;SDS011;40102;50.906;6.972;2023-12-20T03:01:41;7.47;;;1.83;;
54193;SDS011;40102;50.906;6.972;2023-12-20T03:04:07;10.10;;;2.00;;
54193;SDS011;40102;50.906;6.972;2023-12-20T03:06:33;7.95;;;2.40;;
54193;SDS011;40102;50.906;6.972;2023-12-20T03:08:58;9.18;;;2.05;;
54193;SDS011;40102;50.906;6.972;2023-12-20T03:11:26;8.75;;;1.67;;
54193;SDS011;40102;50.906;6.972;2023-12-20T03:13:52;7.07;;;1.40;;
54193;SDS011;40102;50.906;6.972;2023-12-20T03:16:17;8.13;;;1.50;;
54193;SDS011;40102;50.906;6.972;2023-12-20T03:18:43;10.25;;;1.60;;
54193;SDS011;40102;50.906;6.972;2023-12-20T03:21:09;4.45;;;1.35;;
54193;SDS011;40102;50.906;6.972;2023-12-20T03:23:34;5.47;;;1.48;;
54193;SDS011;40102;50.906;6.972;2023-12-20T03:25:59;7.40;;;1.67;;
54193;SDS011;40102;50.906;6.972;2023-12-20T03:28:26;9.07;;;1.70;;
54193;SDS011;40102;50.906;6.972;2023-12-20T03:30:51;6.95;;;2.28;;
54193;SDS011;40102;50.906;6.972;2023-12-20T03:33:17;6.88;;;1.30;;
54193;SDS011;40102;50.906;6.972;2023-12-20T03:35:42;6.05;;;1.30;;
54193;SDS011;40102;50.906;6.972;2023-12-20T03:38:08;10.23;;;1.70;;
54193;SDS011;40102;50.906;6.972;2023-12-20T03:40:33;6.43;;;1.60;;
54193;SDS011;40102;50.906;6.972;2023-12-20T03:42:58;7.55;;;2.22;;
54193;SDS011;40102;50.906;6.972;2023-12-20T03:45:24;7.18;;;2.00;;
54193;SDS011;40102;50.906;6.972;2023-12-20T03:47:49;10.10;;;1.80;;
54193;SDS011;40102;50.906;6.972;2023-12-20T03:50:19;5.75;;;1.73;;
54193;SDS011;40102;50.906;6.972;2023-12-20T03:52:45;9.65;;;1.77;;
54193;SDS011;40102;50.906;6.972;2023-12-20T03:55:10;7.97;;;1.80;;
54193;SDS011;40102;50.906;6.972;2023-12-20T03:57:35;9.35;;;1.77;;
54193;SDS011;40102;50.906;6.972;2023-12-20T04:00:01;7.80;;;1.75;;
54193;SDS011;40102;50.906;6.972;2023-12-20T04:02:26;10.50;;;1.70;;
54193;SDS011;40102;50.906;6.972;2023-12-20T04:04:53;8.05;;;1.73;;
54193;SDS011;40102;50.906;6.972;2023-12-20T04:07:18;9.95;;;1.98;;
54193;SDS011;40102;50.906;6.972;2023-12-20T04:09:43;7.85;;;1.83;;
54193;SDS011;40102;50.906;6.972;2023-12-20T04:12:08;5.68;;;1.65;;
54193;SDS011;40102;50.906;6.972;2023-12-20T04:14:34;13.25;;;3.00;;
54193;SDS011;40102;50.906;6.972;2023-12-20T04:16:59;8.05;;;1.73;;
54193;SDS011;40102;50.906;6.972;2023-12-20T04:19:24;6.30;;;1.65;;
54193;SDS011;40102;50.906;6.972;2023-12-20T04:21:50;9.65;;;2.10;;
54193;SDS011;40102;50.906;6.972;2023-12-20T04:24:15;27.98;;;2.30;;
54193;SDS011;40102;50.906;6.972;2023-12-20T04:26:40;14.15;;;2.45;;
54193;SDS011;40102;50.906;6.972;2023-12-20T04:29:06;6.35;;;2.10;;
54193;SDS011;40102;50.906;6.972;2023-12-20T04:31:31;11.73;;;2.45;;
54193;SDS011;40102;50.906;6.972;2023-12-20T04:33:56;10.52;;;2.67;;
54193;SDS011;40102;50.906;6.972;2023-12-20T04:36:22;16.08;;;2.88;;
54193;SDS011;40102;50.906;6.972;2023-12-20T04:38:47;14.02;;;2.95;;
54193;SDS011;40102;50.906;6.972;2023-12-20T04:41:14;12.75;;;2.85;;
54193;SDS011;40102;50.906;6.972;2023-12-20T04:43:41;8.32;;;2.45;;
54193;SDS011;40102;50.906;6.972;2023-12-20T04:46:06;12.88;;;2.65;;
54193;SDS011;40102;50.906;6.972;2023-12-20T04:48:32;8.73;;;2.80;;
54193;SDS011;40102;50.906;6.972;2023-12-20T04:50:57;9.70;;;2.65;;
54193;SDS011;40102;50.906;6.972;2023-12-20T04:53:22;9.45;;;2.90;;
54193;SDS011;40102;50.906;6.972;2023-12-20T04:55:48;7.90;;;2.78;;
54193;SDS011;40102;50.906;6.972;2023-12-20T04:58:13;11.98;;;3.20;;
54193;SDS011;40102;50.906;6.972;2023-12-20T05:00:38;10.57;;;2.92;;
54193;SDS011;40102;50.906;6.972;2023-12-20T05:03:04;14.55;;;3.58;;
54193;SDS011;40102;50.906;6.972;2023-12-20T05:05:29;10.75;;;3.50;;
54193;SDS011;40102;50.906;6.972;2023-12-20T05:07:54;10.80;;;2.95;;
54193;SDS011;40102;50.906;6.972;2023-12-20T05:10:20;7.90;;;2.83;;
54193;SDS011;40102;50.906;6.972;2023-12-20T05:12:45;11.07;;;2.67;;
54193;SDS011;40102;50.906;6.972;2023-12-20T05:15:10;9.70;;;2.47;;
54193;SDS011;40102;50.906;6.972;2023-12-20T05:17:38;12.30;;;3.63;;
54193;SDS011;40102;50.906;6.972;2023-12-20T05:20:03;12.45;;;2.83;;
54193;SDS011;40102;50.906;6.972;2023-12-20T05:22:29;6.70;;;2.75;;
54193;SDS011;40102;50.906;6.972;2023-12-20T05:24:55;8.48;;;2.78;;
54193;SDS011;40102;50.906;6.972;2023-12-20T05:27:20;7.55;;;2.80;;
54193;SDS011;40102;50.906;6.972;2023-12-20T05:29:45;10.30;;;2.70;;
54193;SDS011;40102;50.906;6.972;2023-12-20T05:32:10;10.27;;;3.22;;
54193;SDS011;40102;50.906;6.972;2023-12-20T05:34:36;9.10;;;3.20;;
54193;SDS011;40102;50.906;6.972;2023-12-20T05:37:01;11.60;;;2.72;;
54193;SDS011;40102;50.906;6.972;2023-12-20T05:39:28;13.32;;;3.08;;
54193;SDS011;40102;50.906;6.972;2023-12-20T05:41:53;9.10;;;3.05;;
54193;SDS011;40102;50.906;6.972;2023-12-20T05:44:18;11.90;;;3.40;;
54193;SDS011;40102;50.906;6.972;2023-12-20T05:46:44;14.23;;;3.33;;
54193;SDS011;40102;50.906;6.972;2023-12-20T05:49:09;10.05;;;3.15;;
54193;SDS011;40102;50.906;6.972;2023-12-20T05:51:35;9.77;;;3.25;;
54193;SDS011;40102;50.906;6.972;2023-12-20T05:54:01;11.32;;;2.63;;
54193;SDS011;40102;50.906;6.972;2023-12-20T05:56:26;7.72;;;3.17;;
54193;SDS011;40102;50.906;6.972;2023-12-20T05:58:52;8.65;;;2.53;;
54193;SDS011;40102;50.906;6.972;2023-12-20T06:01:17;12.35;;;2.75;;
54193;SDS011;40102;50.906;6.972;2023-12-20T06:03:43;11.25;;;2.83;;
54193;SDS011;40102;50.906;6.972;2023-12-20T06:06:08;12.27;;;2.95;;
54193;SDS011;40102;50.906;6.972;2023-12-20T06:08:35;11.75;;;2.80;;
54193;SDS011;40102;50.906;6.972;2023-12-20T06:11:01;12.45;;;2.60;;
54193;SDS011;40102;50.906;6.972;2023-12-20T06:13:26;9.82;;;3.22;;
54193;SDS011;40102;50.906;6.972;2023-12-20T06:15:52;12.40;;;3.47;;
54193;SDS011;40102;50.906;6.972;2023-12-20T06:18:17;14.02;;;3.10;;
54193;SDS011;40102;50.906;6.972;2023-12-20T06:20:42;14.35;;;3.40;;
54193;SDS011;40102;50.906;6.972;2023-12-20T06:23:08;15.32;;;3.58;;
54193;SDS011;40102;50.906;6.972;2023-12-20T06:25:33;12.18;;;3.42;;
54193;SDS011;40102;50.906;6.972;2023-12-20T06:27:58;15.55;;;3.35;;
54193;SDS011;40102;50.906;6.972;2023-12-20T06:30:24;8.52;;;3.00;;
54193;SDS011;40102;50.906;6.972;2023-12-20T06:32:50;15.27;;;3.30;;
54193;SDS011;40102;50.906;6.972;2023-12-20T06:35:16;17.33;;;3.67;;
54193;SDS011;40102;50.906;6.972;2023-12-20T06:37:41;12.25;;;3.20;;
54193;SDS011;40102;50.906;6.972;2023-12-20T06:40:08;8.38;;;2.97;;
54193;SDS011;40102;50.906;6.972;2023-12-20T06:42:35;9.45;;;3.30;;
54193;SDS011;40102;50.906;6.972;2023-12-20T06:45:00;8.55;;;2.40;;
54193;SDS011;40102;50.906;6.972;2023-12-20T06:47:26;12.88;;;2.58;;
54193;SDS011;40102;50.906;6.972;2023-12-20T06:49:51;11.02;;;3.15;;
54193;SDS011;40102;50.906;6.972;2023-12-20T06:52:17;16.38;;;2.97;;
54193;SDS011;40102;50.906;6.972;2023-12-20T06:54:42;11.60;;;2.72;;
54193;SDS011;40102;50.906;6.972;2023-12-20T06:57:07;6.85;;;2.60;;
54193;SDS011;40102;50.906;6.972;2023-12-20T06:59:37;12.10;;;2.75;;
54193;SDS011;40102;50.906;6.972;2023-12-20T07:02:03;13.07;;;3.08;;
54193;SDS011;40102;50.906;6.972;2023-12-20T07:04:30;12.85;;;2.90;;
54193;SDS011;40102;50.906;6.972;2023-12-20T07:06:55;8.88;;;2.40;;
54193;SDS011;40102;50.906;6.972;2023-12-20T07:09:22;7.75;;;2.35;;
54193;SDS011;40102;50.906;6.972;2023-12-20T07:11:47;10.70;;;2.72;;
54193;SDS011;40102;50.906;6.972;2023-12-20T07:14:13;15.07;;;2.65;;
54193;SDS011;40102;50.906;6.972;2023-12-20T07:16:39;16.73;;;2.60;;
54193;SDS011;40102;50.906;6.972;2023-12-20T07:19:05;8.27;;;2.30;;
54193;SDS011;40102;50.906;6.972;2023-12-20T07:21:30;12.77;;;2.63;;
54193;SDS011;40102;50.906;6.972;2023-12-20T07:23:56;13.82;;;2.58;;
54193;SDS011;40102;50.906;6.972;2023-12-20T07:26:21;10.35;;;2.83;;
54193;SDS011;40102;50.906;6.972;2023-12-20T07:28:46;11.57;;;3.38;;
54193;SDS011;40102;50.906;6.972;2023-12-20T07:31:12;13.10;;;3.22;;
54193;SDS011;40102;50.906;6.972;2023-12-20T07:33:37;8.27;;;2.53;;
54193;SDS011;40102;50.906;6.972;2023-12-20T07:36:03;13.77;;;2.95;;
54193;SDS011;40102;50.906;6.972;2023-12-20T07:38:28;7.00;;;2.45;;
54193;SDS011;40102;50.906;6.972;2023-12-20T07:40:53;7.93;;;2.72;;
54193;SDS011;40102;50.906;6.972;2023-12-20T07:43:19;6.35;;;2.70;;
54193;SDS011;40102;50.906;6.972;2023-12-20T07:45:44;8.45;;;2.90;;
54193;SDS011;40102;50.906;6.972;2023-12-20T07:48:09;10.27;;;3.15;;
54193;SDS011;40102;50.906;6.972;2023-12-20T07:50:35;11.68;;;3.60;;
54193;SDS011;40102;50.906;6.972;2023-12-20T07:53:00;11.90;;;2.92;;
54193;SDS011;40102;50.906;6.972;2023-12-20T07:55:26;14.52;;;2.78;;
54193;SDS011;40102;50.906;6.972;2023-12-20T07:57:52;11.70;;;2.83;;
54193;SDS011;40102;50.906;6.972;2023-12-20T08:00:17;10.73;;;3.13;;
54193;SDS011;40102;50.906;6.972;2023-12-20T08:02:43;9.20;;;2.67;;
54193;SDS011;40102;50.906;6.972;2023-12-20T08:05:08;11.70;;;2.30;;
54193;SDS011;40102;50.906;6.972;2023-12-20T08:07:34;15.70;;;3.03;;
54193;SDS011;40102;50.906;6.972;2023-12-20T08:10:02;10.30;;;2.50;;
54193;SDS011;40102;50.906;6.972;2023-12-20T08:12:27;10.20;;;2.80;;
54193;SDS011;40102;50.906;6.972;2023-12-20T08:14:53;17.67;;;2.53;;
54193;SDS011;40102;50.906;6.972;2023-12-20T08:17:19;13.00;;;2.78;;
54193;SDS011;40102;50.906;6.972;2023-12-20T08:19:44;8.10;;;2.40;;
54193;SDS011;40102;50.906;6.972;2023-12-20T08:22:10;8.38;;;3.00;;
54193;SDS011;40102;50.906;6.972;2023-12-20T08:24:36;8.68;;;2.85;;
54193;SDS011;40102;50.906;6.972;2023-12-20T08:27:02;12.48;;;2.70;;
54193;SDS011;40102;50.906;6.972;2023-12-20T08:29:28;11.57;;;3.15;;
54193;SDS011;40102;50.906;6.972;2023-12-20T08:31:54;8.93;;;2.45;;
54193;SDS011;40102;50.906;6.972;2023-12-20T08:34:20;14.35;;;2.80;;
54193;SDS011;40102;50.906;6.972;2023-12-20T08:36:45;10.50;;;2.70;;
54193;SDS011;40102;50.906;6.972;2023-12-20T08:39:11;8.02;;;2.53;;
54193;SDS011;40102;50.906;6.972;2023-12-20T08:41:36;6.10;;;2.75;;
54193;SDS011;40102;50.906;6.972;2023-12-20T08:44:02;11.70;;;2.60;;
54193;SDS011;40102;50.906;6.972;2023-12-20T08:46:27;18.50;;;2.75;;
54193;SDS011;40102;50.906;6.972;2023-12-20T08:49:00;7.55;;;2.70;;
54193;SDS011;40102;50.906;6.972;2023-12-20T08:51:26;8.65;;;2.83;;
54193;SDS011;40102;50.906;6.972;2023-12-20T08:53:52;13.90;;;2.72;;
54193;SDS011;40102;50.906;6.972;2023-12-20T08:56:17;16.05;;;2.70;;
54193;SDS011;40102;50.906;6.972;2023-12-20T08:58:43;9.48;;;2.25;;
54193;SDS011;40102;50.906;6.972;2023-12-20T09:01:08;12.82;;;2.63;;
54193;SDS011;40102;50.906;6.972;2023-12-20T09:03:34;10.13;;;2.63;;
54193;SDS011;40102;50.906;6.972;2023-12-20T09:05:59;7.38;;;2.33;;
54193;SDS011;40102;50.906;6.972;2023-12-20T09:08:25;8.20;;;2.17;;
54193;SDS011;40102;50.906;6.972;2023-12-20T09:10:50;11.63;;;2.72;;
54193;SDS011;40102;50.906;6.972;2023-12-20T09:13:16;9.77;;;2.40;;
54193;SDS011;40102;50.906;6.972;2023-12-20T09:15:41;15.68;;;2.72;;
54193;SDS011;40102;50.906;6.972;2023-12-20T09:18:06;11.38;;;2.60;;
54193;SDS011;40102;50.906;6.972;2023-12-20T09:20:32;7.95;;;2.30;;
54193;SDS011;40102;50.906;6.972;2023-12-20T09:22:58;12.00;;;2.80;;
54193;SDS011;40102;50.906;6.972;2023-12-20T09:25:23;10.98;;;2.58;;
54193;SDS011;40102;50.906;6.972;2023-12-20T09:27:49;8.70;;;2.05;;
54193;SDS011;40102;50.906;6.972;2023-12-20T09:30:14;6.75;;;1.98;;
54193;SDS011;40102;50.906;6.972;2023-12-20T09:32:39;13.70;;;2.40;;
54193;SDS011;40102;50.906;6.972;2023-12-20T09:35:05;5.45;;;2.08;;
54193;SDS011;40102;50.906;6.972;2023-12-20T09:37:31;11.65;;;2.45;;
54193;SDS011;40102;50.906;6.972;2023-12-20T09:39:57;9.45;;;2.03;;
54193;SDS011;40102;50.906;6.972;2023-12-20T09:42:42;7.05;;;2.38;;
54193;SDS011;40102;50.906;6.972;2023-12-20T09:45:20;6.43;;;2.13;;
54193;SDS011;40102;50.906;6.972;2023-12-20T09:47:53;9.68;;;2.05;;
54193;SDS011;40102;50.906;6.972;2023-12-20T09:50:22;7.97;;;2.03;;
54193;SDS011;40102;50.906;6.972;2023-12-20T09:52:49;8.45;;;2.05;;
54193;SDS011;40102;50.906;6.972;2023-12-20T09:55:19;16.05;;;2.17;;
54193;SDS011;40102;50.906;6.972;2023-12-20T09:57:48;15.10;;;2.42;;
54193;SDS011;40102;50.906;6.972;2023-12-20T10:00:14;15.95;;;2.20;;
54193;SDS011;40102;50.906;6.972;2023-12-20T10:02:59;7.22;;;2.60;;
54193;SDS011;40102;50.906;6.972;2023-12-20T10:05:28;10.05;;;1.88;;
54193;SDS011;40102;50.906;6.972;2023-12-20T10:07:55;11.20;;;2.15;;
54193;SDS011;40102;50.906;6.972;2023-12-20T10:10:21;8.02;;;1.80;;
54193;SDS011;40102;50.906;6.972;2023-12-20T10:13:06;11.57;;;2.25;;
54193;SDS011;40102;50.906;6.972;2023-12-20T10:15:33;12.23;;;2.47;;
54193;SDS011;40102;50.906;6.972;2023-12-20T10:17:59;9.55;;;2.38;;
54193;SDS011;40102;50.906;6.972;2023-12-20T10:20:26;12.70;;;2.28;;
54193;SDS011;40102;50.906;6.972;2023-12-20T10:22:54;7.95;;;1.92;;
54193;SDS011;40102;50.906;6.972;2023-12-20T10:25:20;7.68;;;1.70;;
54193;SDS011;40102;50.906;6.972;2023-12-20T10:27:46;7.05;;;1.92;;
54193;SDS011;40102;50.906;6.972;2023-12-20T10:30:12;9.63;;;2.38;;
54193;SDS011;40102;50.906;6.972;2023-12-20T10:32:39;11.25;;;2.25;;
54193;SDS011;40102;50.906;6.972;2023-12-20T10:35:04;10.45;;;2.00;;
54193;SDS011;40102;50.906;6.972;2023-12-20T10:37:30;8.18;;;2.25;;
54193;SDS011;40102;50.906;6.972;2023-12-20T10:39:55;11.57;;;2.35;;
54193;SDS011;40102;50.906;6.972;2023-12-20T10:42:26;11.07;;;2.28;;
54193;SDS011;40102;50.906;6.972;2023-12-20T10:44:52;7.38;;;2.03;;
54193;SDS011;40102;50.906;6.972;2023-12-20T10:47:19;15.32;;;2.30;;
54193;SDS011;40102;50.906;6.972;2023-12-20T10:49:44;9.98;;;2.45;;
54193;SDS011;40102;50.906;6.972;2023-12-20T10:52:11;9.93;;;1.83;;
54193;SDS011;40102;50.906;6.972;2023-12-20T10:54:38;8.00;;;2.05;;
54193;SDS011;40102;50.906;6.972;2023-12-20T10:57:06;9.80;;;1.85;;
54193;SDS011;40102;50.906;6.972;2023-12-20T10:59:36;7.00;;;2.20;;
54193;SDS011;40102;50.906;6.972;2023-12-20T11:02:03;6.45;;;2.15;;
54193;SDS011;40102;50.906;6.972;2023-12-20T11:07:46;10.75;;;2.03;;
54193;SDS011;40102;50.906;6.972;2023-12-20T11:10:31;10.18;;;2.00;;
54193;SDS011;40102;50.906;6.972;2023-12-20T11:15:48;10.20;;;1.80;;
54193;SDS011;40102;50.906;6.972;2023-12-20T11:18:14;8.60;;;2.00;;
54193;SDS011;40102;50.906;6.972;2023-12-20T11:20:40;8.88;;;2.25;;
54193;SDS011;40102;50.906;6.972;2023-12-20T11:23:07;7.47;;;1.95;;
54193;SDS011;40102;50.906;6.972;2023-12-20T11:25:47;5.70;;;2.15;;
54193;SDS011;40102;50.906;6.972;2023-12-20T11:28:14;7.85;;;2.03;;
54193;SDS011;40102;50.906;6.972;2023-12-20T11:30:45;7.13;;;2.10;;
54193;SDS011;40102;50.906;6.972;2023-12-20T11:33:15;5.60;;;1.90;;
54193;SDS011;40102;50.906;6.972;2023-12-20T11:35:41;14.90;;;2.03;;
54193;SDS011;40102;50.906;6.972;2023-12-20T11:38:07;9.82;;;2.65;;
54193;SDS011;40102;50.906;6.972;2023-12-20T11:40:36;8.43;;;2.22;;
54193;SDS011;40102;50.906;6.972;2023-12-20T11:43:02;7.97;;;2.08;;
54193;SDS011;40102;50.906;6.972;2023-12-20T11:45:28;9.50;;;2.55;;
54193;SDS011;40102;50.906;6.972;2023-12-20T11:47:53;10.18;;;2.03;;
54193;SDS011;40102;50.906;6.972;2023-12-20T11:50:19;7.20;;;1.75;;
54193;SDS011;40102;50.906;6.972;2023-12-20T11:52:46;8.98;;;2.00;;
54193;SDS011;40102;50.906;6.972;2023-12-20T11:55:12;4.95;;;1.95;;
54193;SDS011;40102;50.906;6.972;2023-12-20T11:57:38;14.65;;;2.92;;
54193;SDS011;40102;50.906;6.972;2023-12-20T12:00:03;11.63;;;2.15;;
54193;SDS011;40102;50.906;6.972;2023-12-20T12:02:30;7.43;;;2.13;;
54193;SDS011;40102;50.906;6.972;2023-12-20T12:04:55;7.93;;;2.42;;
54193;SDS011;40102;50.906;6.972;2023-12-20T12:07:21;12.93;;;2.00;;
54193;SDS011;40102;50.906;6.972;2023-12-20T12:09:47;5.85;;;1.75;;
54193;SDS011;40102;50.906;6.972;2023-12-20T12:12:13;11.77;;;3.05;;
54193;SDS011;40102;50.906;6.972;2023-12-20T12:14:39;9.60;;;1.88;;
54193;SDS011;40102;50.906;6.972;2023-12-20T12:17:11;9.50;;;2.05;;
54193;SDS011;40102;50.906;6.972;2023-12-20T12:19:38;7.97;;;2.70;;
54193;SDS011;40102;50.906;6.972;2023-12-20T12:22:14;6.30;;;1.90;;
54193;SDS011;40102;50.906;6.972;2023-12-20T12:24:45;7.28;;;1.80;;
54193;SDS011;40102;50.906;6.972;2023-12-20T12:27:12;12.75;;;1.85;;
54193;SDS011;40102;50.906;6.972;2023-12-20T12:29:41;7.78;;;2.45;;
54193;SDS011;40102;50.906;6.972;2023-12-20T12:32:24;9.68;;;2.63;;
54193;SDS011;40102;50.906;6.972;2023-12-20T12:34:50;9.25;;;1.95;;
54193;SDS011;40102;50.906;6.972;2023-12-20T12:37:15;6.88;;;2.40;;
54193;SDS011;40102;50.906;6.972;2023-12-20T12:39:41;11.02;;;2.50;;
54193;SDS011;40102;50.906;6.972;2023-12-20T12:42:09;10.15;;;2.40;;
54193;SDS011;40102;50.906;6.972;2023-12-20T12:44:34;7.00;;;2.85;;
54193;SDS011;40102;50.906;6.972;2023-12-20T12:46:59;9.35;;;2.30;;
54193;SDS011;40102;50.906;6.972;2023-12-20T12:49:25;11.55;;;2.40;;
54193;SDS011;40102;50.906;6.972;2023-12-20T12:51:53;11.07;;;3.03;;
54193;SDS011;40102;50.906;6.972;2023-12-20T12:54:19;9.68;;;2.33;;
54193;SDS011;40102;50.906;6.972;2023-12-20T12:56:44;8.38;;;2.67;;
54193;SDS011;40102;50.906;6.972;2023-12-20T12:59:12;10.77;;;2.20;;
54193;SDS011;40102;50.906;6.972;2023-12-20T13:01:37;11.93;;;2.58;;
54193;SDS011;40102;50.906;6.972;2023-12-20T13:04:03;11.73;;;2.38;;
54193;SDS011;40102;50.906;6.972;2023-12-20T13:06:31;7.15;;;2.58;;
54193;SDS011;40102;50.906;6.972;2023-12-20T13:08:57;10.23;;;2.60;;
54193;SDS011;40102;50.906;6.972;2023-12-20T13:11:26;7.97;;;2.85;;
54193;SDS011;40102;50.906;6.972;2023-12-20T13:13:51;11.70;;;2.63;;
54193;SDS011;40102;50.906;6.972;2023-12-20T13:16:16;8.50;;;2.55;;
54193;SDS011;40102;50.906;6.972;2023-12-20T13:18:42;10.43;;;2.72;;
54193;SDS011;40102;50.906;6.972;2023-12-20T13:21:08;8.55;;;2.58;;
54193;SDS011;40102;50.906;6.972;2023-12-20T13:23:34;10.02;;;2.42;;
54193;SDS011;40102;50.906;6.972;2023-12-20T13:25:59;9.75;;;2.53;;
54193;SDS011;40102;50.906;6.972;2023-12-20T13:28:24;10.70;;;2.55;;
54193;SDS011;40102;50.906;6.972;2023-12-20T13:30:50;11.85;;;2.80;;
54193;SDS011;40102;50.906;6.972;2023-12-20T13:33:15;10.18;;;2.80;;
54193;SDS011;40102;50.906;6.972;2023-12-20T13:35:41;10.45;;;2.92;;
54193;SDS011;40102;50.906;6.972;2023-12-20T13:38:06;13.68;;;2.47;;
54193;SDS011;40102;50.906;6.972;2023-12-20T13:40:32;8.98;;;2.83;;
54193;SDS011;40102;50.906;6.972;2023-12-20T13:42:58;11.80;;;2.70;;
54193;SDS011;40102;50.906;6.972;2023-12-20T13:45:23;11.52;;;2.65;;
54193;SDS011;40102;50.906;6.972;2023-12-20T13:47:50;9.55;;;2.65;;
54193;SDS011;40102;50.906;6.972;2023-12-20T13:50:15;7.13;;;2.42;;
54193;SDS011;40102;50.906;6.972;2023-12-20T13:52:41;15.88;;;2.70;;
54193;SDS011;40102;50.906;6.972;2023-12-20T13:55:06;9.27;;;2.78;;
54193;SDS011;40102;50.906;6.972;2023-12-20T13:57:32;9.38;;;2.45;;
54193;SDS011;40102;50.906;6.972;2023-12-20T13:59:58;9.60;;;2.70;;
54193;SDS011;40102;50.906;6.972;2023-12-20T14:02:33;6.32;;;2.08;;
54193;SDS011;40102;50.906;6.972;2023-12-20T14:04:58;8.77;;;2.10;;
54193;SDS011;40102;50.906;6.972;2023-12-20T14:07:23;7.32;;;2.45;;
54193;SDS011;40102;50.906;6.972;2023-12-20T14:09:49;6.97;;;2.60;;
54193;SDS011;40102;50.906;6.972;2023-12-20T14:12:14;6.45;;;2.00;;
54193;SDS011;40102;50.906;6.972;2023-12-20T14:14:40;9.30;;;2.05;;
54193;SDS011;40102;50.906;6.972;2023-12-20T14:17:05;7.22;;;1.88;;
54193;SDS011;40102;50.906;6.972;2023-12-20T14:19:34;7.07;;;2.13;;
54193;SDS011;40102;50.906;6.972;2023-12-20T14:21:59;7.22;;;1.83;;
54193;SDS011;40102;50.906;6.972;2023-12-20T14:24:26;5.03;;;1.55;;
54193;SDS011;40102;50.906;6.972;2023-12-20T14:26:52;9.77;;;2.40;;
54193;SDS011;40102;50.906;6.972;2023-12-20T14:29:18;7.38;;;1.77;;
54193;SDS011;40102;50.906;6.972;2023-12-20T14:31:43;5.80;;;1.90;;
54193;SDS011;40102;50.906;6.972;2023-12-20T14:34:09;8.55;;;2.30;;
54193;SDS011;40102;50.906;6.972;2023-12-20T14:36:34;10.18;;;1.95;;
54193;SDS011;40102;50.906;6.972;2023-12-20T14:39:00;12.60;;;2.35;;
54193;SDS011;40102;50.906;6.972;2023-12-20T14:41:26;11.35;;;2.67;;
54193;SDS011;40102;50.906;6.972;2023-12-20T14:43:52;8.13;;;2.25;;